createdAt,value
2023-02-28T00:00:58.238Z,4.50
2023-02-28T00:02:58.604Z,3.50
2023-02-28T00:04:58.904Z,3.90
2023-02-28T00:06:59.214Z,4.50
2023-02-28T00:08:59.567Z,2.40
2023-02-28T00:11:00.434Z,4.80
2023-02-28T00:13:00.715Z,3.60
2023-02-28T00:15:01.086Z,2.30
2023-02-28T00:17:01.449Z,3.60
2023-02-28T00:19:01.767Z,3.90
2023-02-28T00:21:02.193Z,4.50
2023-02-28T00:23:02.470Z,3.50
2023-02-28T00:25:03.013Z,2.50
2023-02-28T00:27:03.358Z,2.50
2023-02-28T00:29:03.666Z,3.70
2023-02-28T00:31:04.060Z,3.20
2023-02-28T00:33:04.411Z,4.10
2023-02-28T00:35:04.710Z,3.50
2023-02-28T00:37:05.046Z,4.00
2023-02-28T00:39:05.322Z,3.50
2023-02-28T00:41:06.018Z,3.40
2023-02-28T00:43:06.360Z,3.80
2023-02-28T00:45:06.683Z,3.50
2023-02-28T00:47:06.962Z,5.00
2023-02-28T00:49:07.308Z,2.60
2023-02-28T00:51:07.601Z,3.10
2023-02-28T00:53:07.911Z,4.00
2023-02-28T00:55:08.182Z,3.40
2023-02-28T00:57:08.518Z,3.20
2023-02-28T00:59:08.839Z,3.90
2023-02-28T01:01:10.067Z,3.50
2023-02-28T01:03:10.350Z,4.50
2023-02-28T01:05:10.665Z,4.70
2023-02-28T01:07:11.072Z,4.20
2023-02-28T01:09:11.364Z,3.60
2023-02-28T01:11:11.674Z,4.80
2023-02-28T01:13:12.010Z,5.50
2023-02-28T01:15:12.342Z,3.90
2023-02-28T01:17:12.672Z,3.00
2023-02-28T01:19:12.953Z,3.50
2023-02-28T01:21:13.301Z,5.70
2023-02-28T01:23:13.954Z,3.60
2023-02-28T01:25:14.295Z,3.10
2023-02-28T01:27:14.600Z,3.80
2023-02-28T01:29:14.938Z,4.30
2023-02-28T01:31:15.465Z,3.30
2023-02-28T01:33:15.729Z,4.60
2023-02-28T01:35:16.082Z,4.80
2023-02-28T01:37:16.353Z,5.30
2023-02-28T01:39:16.657Z,4.20
2023-02-28T01:41:17.051Z,5.60
2023-02-28T01:43:17.285Z,6.30
2023-02-28T01:45:17.610Z,5.50
2023-02-28T01:47:17.916Z,5.30
2023-02-28T01:49:18.230Z,4.40
2023-02-28T01:51:18.539Z,4.60
2023-02-28T01:53:18.854Z,4.00
2023-02-28T01:55:19.208Z,4.20
2023-02-28T01:57:19.442Z,4.90
2023-02-28T01:59:19.784Z,5.00
2023-02-28T02:01:20.189Z,6.00
2023-02-28T02:03:20.457Z,4.80
2023-02-28T02:05:20.762Z,5.10
2023-02-28T02:07:21.113Z,5.30
2023-02-28T02:09:21.461Z,4.70
2023-02-28T02:11:21.762Z,5.30
2023-02-28T02:13:22.047Z,5.90
2023-02-28T02:15:22.390Z,4.60
2023-02-28T02:17:22.932Z,6.00
2023-02-28T02:19:23.238Z,5.00
2023-02-28T02:21:23.556Z,4.70
2023-02-28T02:23:23.870Z,6.00
2023-02-28T02:25:24.210Z,5.90
2023-02-28T02:27:24.487Z,5.10
2023-02-28T02:29:24.787Z,4.90
2023-02-28T02:31:25.118Z,5.10
2023-02-28T02:33:25.367Z,4.90
2023-02-28T02:35:25.742Z,5.80
2023-02-28T02:37:26.031Z,6.00
2023-02-28T02:39:26.360Z,5.70
2023-02-28T02:41:26.794Z,6.20
2023-02-28T02:43:27.195Z,6.20
2023-02-28T02:45:27.452Z,5.80
2023-02-28T02:47:27.757Z,5.90
2023-02-28T02:49:28.042Z,7.50
2023-02-28T02:51:28.763Z,6.00
2023-02-28T02:53:29.317Z,6.10
2023-02-28T02:55:29.685Z,6.00
2023-02-28T02:57:29.940Z,6.80
2023-02-28T02:59:30.278Z,6.00
2023-02-28T03:01:31.251Z,5.40
2023-02-28T03:03:31.745Z,8.70
2023-02-28T03:05:32.106Z,6.30
2023-02-28T03:07:32.392Z,5.30
2023-02-28T03:09:32.710Z,6.20
2023-02-28T03:11:33.037Z,5.00
2023-02-28T03:13:33.961Z,6.00
2023-02-28T03:15:34.280Z,6.10
2023-02-28T03:17:34.761Z,7.10
2023-02-28T03:19:36.010Z,5.50
2023-02-28T03:21:36.277Z,5.90
2023-02-28T03:23:36.554Z,5.80
2023-02-28T03:25:36.895Z,5.90
2023-02-28T03:27:37.140Z,5.50
2023-02-28T03:29:37.467Z,7.70
2023-02-28T03:31:37.793Z,6.30
2023-02-28T03:33:38.094Z,5.30
2023-02-28T03:35:38.385Z,8.10
2023-02-28T03:37:38.719Z,7.30
2023-02-28T03:39:39.005Z,5.90
2023-02-28T03:41:39.296Z,6.30
2023-02-28T03:43:39.657Z,6.50
2023-02-28T03:45:40.086Z,7.20
2023-02-28T03:47:40.495Z,6.50
2023-02-28T03:49:40.788Z,5.90
2023-02-28T03:51:41.108Z,6.00
2023-02-28T03:53:41.508Z,6.70
2023-02-28T03:55:46.631Z,6.10
2023-02-28T03:57:47.355Z,6.40
2023-02-28T03:59:47.602Z,5.40
2023-02-28T04:01:47.920Z,7.00
2023-02-28T04:03:48.252Z,8.20
2023-02-28T04:05:48.534Z,6.50
2023-02-28T04:07:48.879Z,7.80
2023-02-28T04:09:49.189Z,7.80
2023-02-28T04:11:49.494Z,6.20
2023-02-28T04:13:49.792Z,6.80
2023-02-28T04:15:50.205Z,6.50
2023-02-28T04:17:50.499Z,7.50
2023-02-28T04:19:50.817Z,6.90
2023-02-28T04:21:51.095Z,7.60
2023-02-28T04:23:51.410Z,7.00
2023-02-28T04:25:51.732Z,5.60
2023-02-28T04:27:52.064Z,6.80
2023-02-28T04:29:52.351Z,7.20
2023-02-28T04:31:52.763Z,9.20
2023-02-28T04:33:53.033Z,8.50
2023-02-28T04:35:53.449Z,6.60
2023-02-28T04:37:53.717Z,9.00
2023-02-28T04:39:54.054Z,10.40
2023-02-28T04:41:54.353Z,8.50
2023-02-28T04:43:54.657Z,7.40
2023-02-28T04:45:55.028Z,6.10
2023-02-28T04:47:55.967Z,9.30
2023-02-28T04:49:56.232Z,8.60
2023-02-28T04:51:56.541Z,7.70
2023-02-28T04:53:56.852Z,9.80
2023-02-28T04:55:57.142Z,9.70
2023-02-28T04:57:57.454Z,9.10
2023-02-28T04:59:57.744Z,9.80
2023-02-28T05:01:58.103Z,7.80
2023-02-28T05:03:58.473Z,11.10
2023-02-28T05:05:58.736Z,8.60
2023-02-28T05:07:59.025Z,8.50
2023-02-28T05:09:59.311Z,7.10
2023-02-28T05:11:59.662Z,7.90
2023-02-28T05:13:59.977Z,7.40
2023-02-28T05:16:00.344Z,6.10
2023-02-28T05:18:00.603Z,8.30
2023-02-28T05:20:13.364Z,6.70
2023-02-28T05:22:06.281Z,7.80
2023-02-28T05:24:06.756Z,7.50
2023-02-28T05:26:07.234Z,6.80
2023-02-28T05:28:07.682Z,7.70
2023-02-28T05:30:08.129Z,7.00
2023-02-28T05:32:08.498Z,8.50
2023-02-28T05:34:53.248Z,8.30
2023-02-28T05:36:53.627Z,8.60
2023-02-28T05:38:54.001Z,9.30
2023-02-28T05:40:54.640Z,8.50
2023-02-28T05:43:40.405Z,8.70
2023-02-28T05:45:40.846Z,9.40
2023-02-28T05:47:41.600Z,10.40
2023-02-28T05:49:41.958Z,11.00
2023-02-28T05:51:42.362Z,13.60
2023-02-28T05:53:42.662Z,13.00
2023-02-28T05:55:42.963Z,15.40
2023-02-28T05:57:43.298Z,10.90
2023-02-28T05:59:43.612Z,11.40
2023-02-28T06:01:43.905Z,10.20
2023-02-28T06:03:44.218Z,10.40
2023-02-28T06:05:44.529Z,9.80
2023-02-28T06:07:44.897Z,11.10
2023-02-28T06:09:45.190Z,7.60
2023-02-28T06:11:45.525Z,9.70
2023-02-28T06:13:45.830Z,9.40
2023-02-28T06:15:46.112Z,10.10
2023-02-28T06:17:46.653Z,8.80
2023-02-28T06:19:47.034Z,12.40
2023-02-28T06:21:47.418Z,8.40
2023-02-28T06:23:47.758Z,16.30
2023-02-28T06:25:48.046Z,10.10
2023-02-28T06:27:48.466Z,8.00
2023-02-28T06:29:48.771Z,6.70
2023-02-28T06:31:49.162Z,10.80
2023-02-28T06:33:49.475Z,9.10
2023-02-28T06:35:49.952Z,7.90
2023-02-28T06:37:50.272Z,11.80
2023-02-28T06:39:50.791Z,9.70
2023-02-28T06:41:55.317Z,9.50
2023-02-28T06:43:56.176Z,11.10
2023-02-28T06:45:56.525Z,9.30
2023-02-28T06:47:56.801Z,10.60
2023-02-28T06:49:57.111Z,10.70
2023-02-28T06:51:57.465Z,8.60
2023-02-28T06:53:57.739Z,10.30
2023-02-28T06:55:58.072Z,9.40
2023-02-28T06:57:58.370Z,7.70
2023-02-28T06:59:58.713Z,8.50
2023-02-28T07:01:59.627Z,8.60
2023-02-28T07:03:59.924Z,7.50
2023-02-28T07:06:00.238Z,9.90
2023-02-28T07:08:00.618Z,9.60
2023-02-28T07:10:00.917Z,8.90
2023-02-28T07:12:01.192Z,8.60
2023-02-28T07:14:01.579Z,9.50
2023-02-28T07:16:01.900Z,10.30
2023-02-28T07:18:02.233Z,12.50
2023-02-28T07:20:02.695Z,8.40
2023-02-28T07:22:02.953Z,10.30
2023-02-28T07:24:03.306Z,11.40
2023-02-28T07:26:03.658Z,11.30
2023-02-28T07:28:03.974Z,11.00
2023-02-28T07:30:04.320Z,13.30
2023-02-28T07:32:04.660Z,12.10
2023-02-28T07:34:05.020Z,8.30
2023-02-28T07:36:05.240Z,7.90
2023-02-28T07:38:05.543Z,8.20
2023-02-28T07:40:05.868Z,13.10
2023-02-28T07:42:06.151Z,9.70
2023-02-28T07:44:06.513Z,12.90
2023-02-28T07:46:06.816Z,10.70
2023-02-28T07:48:07.116Z,10.90
2023-02-28T07:50:07.478Z,7.70
2023-02-28T07:52:07.738Z,10.70
2023-02-28T07:54:08.047Z,9.40
2023-02-28T07:56:08.329Z,8.30
2023-02-28T07:58:08.607Z,10.60
2023-02-28T08:00:08.932Z,11.20
2023-02-28T08:02:09.274Z,10.10
2023-02-28T08:04:09.558Z,9.60
2023-02-28T08:06:09.894Z,9.00
2023-02-28T08:08:10.276Z,9.50
2023-02-28T08:10:10.535Z,11.60
2023-02-28T08:12:11.613Z,9.90
2023-02-28T08:14:12.014Z,9.50
2023-02-28T08:16:12.423Z,9.40
2023-02-28T08:18:12.691Z,11.20
2023-02-28T08:20:13.018Z,9.60
2023-02-28T08:22:13.489Z,9.40
2023-02-28T08:24:13.876Z,10.50
2023-02-28T08:26:14.432Z,8.70
2023-02-28T08:28:14.685Z,7.80
2023-02-28T08:30:15.033Z,10.30
2023-02-28T08:32:28.984Z,16.90
2023-02-28T08:34:20.692Z,8.80
2023-02-28T08:36:21.143Z,11.80
2023-02-28T08:38:21.438Z,10.80
2023-02-28T08:40:21.788Z,11.00
2023-02-28T08:42:22.258Z,9.60
2023-02-28T08:44:22.644Z,11.00
2023-02-28T08:46:23.676Z,17.00
2023-02-28T08:48:23.972Z,10.90
2023-02-28T08:50:29.268Z,8.70
2023-02-28T08:52:29.840Z,12.60
2023-02-28T08:54:30.112Z,12.70
2023-02-28T08:56:30.403Z,9.30
2023-02-28T08:58:30.694Z,8.00
2023-02-28T09:00:35.878Z,8.80
2023-02-28T09:02:36.211Z,8.50
2023-02-28T09:04:36.641Z,8.70
2023-02-28T09:06:37.052Z,9.10
2023-02-28T09:08:42.295Z,8.40
2023-02-28T09:10:42.752Z,13.80
2023-02-28T09:12:43.049Z,8.70
2023-02-28T09:14:43.574Z,10.30
2023-02-28T09:16:43.833Z,10.40
2023-02-28T09:18:44.122Z,8.50
2023-02-28T09:20:44.514Z,8.50
2023-02-28T09:22:44.816Z,7.70
2023-02-28T09:24:45.182Z,11.20
2023-02-28T09:26:56.537Z,8.10
2023-02-28T09:28:50.716Z,7.30
2023-02-28T09:30:51.101Z,9.50
2023-02-28T09:32:51.496Z,9.80
2023-02-28T09:34:51.829Z,7.50
2023-02-28T09:36:52.631Z,8.10
2023-02-28T09:38:57.335Z,8.30
2023-02-28T09:40:57.700Z,9.60
2023-02-28T09:42:57.974Z,8.60
2023-02-28T09:44:58.245Z,8.10
2023-02-28T09:46:58.589Z,7.10
2023-02-28T09:48:58.854Z,7.70
2023-02-28T09:50:59.156Z,9.00
2023-02-28T09:52:59.551Z,7.80
2023-02-28T09:54:59.875Z,7.80
2023-02-28T09:57:00.252Z,11.80
2023-02-28T09:59:00.627Z,7.10
2023-02-28T10:01:01.068Z,8.00
2023-02-28T10:03:01.410Z,8.20
2023-02-28T10:05:01.768Z,8.80
2023-02-28T10:07:02.052Z,7.20
2023-02-28T10:09:02.343Z,9.30
2023-02-28T10:11:02.676Z,13.20
2023-02-28T10:13:03.112Z,8.20
2023-02-28T10:15:03.469Z,7.80
2023-02-28T10:17:03.778Z,8.50
2023-02-28T10:19:04.058Z,9.70
2023-02-28T10:21:04.362Z,11.60
2023-02-28T10:23:04.796Z,9.40
2023-02-28T10:25:06.761Z,11.40
2023-02-28T10:27:07.276Z,11.40
2023-02-28T10:29:07.589Z,8.60
2023-02-28T10:31:08.006Z,6.90
2023-02-28T10:33:08.407Z,9.30
2023-02-28T10:35:08.671Z,7.70
2023-02-28T10:37:09.000Z,8.70
2023-02-28T10:39:09.266Z,12.70
2023-02-28T10:41:09.629Z,7.60
2023-02-28T10:43:09.951Z,8.40
2023-02-28T10:45:11.739Z,7.80
2023-02-28T10:47:12.005Z,9.60
2023-02-28T10:49:12.372Z,9.90
2023-02-28T10:51:13.187Z,7.80
2023-02-28T10:53:13.750Z,7.60
2023-02-28T10:55:14.068Z,7.60
2023-02-28T10:57:14.359Z,7.90
2023-02-28T10:59:14.714Z,8.60
2023-02-28T11:01:15.104Z,9.00
2023-02-28T11:03:15.420Z,8.70
2023-02-28T11:05:15.702Z,8.80
2023-02-28T11:07:16.055Z,9.50
2023-02-28T11:09:16.431Z,8.40
2023-02-28T11:11:16.778Z,8.10
2023-02-28T11:13:17.153Z,9.50
2023-02-28T11:15:17.433Z,7.70
2023-02-28T11:17:17.706Z,9.50
2023-02-28T11:19:18.122Z,8.40
2023-02-28T11:21:18.362Z,9.00
2023-02-28T11:23:18.664Z,12.10
2023-02-28T11:25:19.097Z,10.80
2023-02-28T11:27:19.366Z,9.80
2023-02-28T11:29:19.671Z,8.40
2023-02-28T11:31:20.129Z,7.90
2023-02-28T11:33:20.452Z,12.90
2023-02-28T11:35:20.771Z,18.10
2023-02-28T11:37:21.092Z,8.30
2023-02-28T11:39:22.174Z,8.30
2023-02-28T11:41:22.544Z,10.80
2023-02-28T11:43:22.817Z,8.40
2023-02-28T11:45:23.278Z,12.60
2023-02-28T11:47:23.547Z,9.20
2023-02-28T11:49:23.927Z,9.30
2023-02-28T11:51:24.291Z,9.80
2023-02-28T11:53:26.348Z,7.60
2023-02-28T11:55:27.145Z,10.90
2023-02-28T11:57:27.466Z,10.80
2023-02-28T11:59:27.721Z,9.50
2023-02-28T12:01:28.459Z,10.20
2023-02-28T12:03:28.942Z,8.40
2023-02-28T12:05:29.298Z,9.50
2023-02-28T12:07:29.551Z,11.00
2023-02-28T12:09:29.890Z,9.10
2023-02-28T12:11:30.642Z,11.80
2023-02-28T12:13:31.177Z,9.70
2023-02-28T12:15:31.443Z,11.50
2023-02-28T12:17:31.772Z,10.60
2023-02-28T12:19:32.088Z,9.50
2023-02-28T12:21:32.424Z,9.20
2023-02-28T12:23:32.723Z,8.00
2023-02-28T12:25:33.091Z,9.00
2023-02-28T12:27:33.367Z,9.80
2023-02-28T12:29:33.681Z,10.10
2023-02-28T12:31:33.972Z,9.00
2023-02-28T12:33:34.282Z,9.50
2023-02-28T12:35:34.640Z,8.90
2023-02-28T12:37:34.986Z,10.30
2023-02-28T12:39:48.335Z,8.50
2023-02-28T12:41:40.481Z,9.00
2023-02-28T12:43:40.787Z,8.10
2023-02-28T12:45:41.241Z,8.20
2023-02-28T12:47:41.549Z,7.90
2023-02-28T12:49:41.804Z,9.00
2023-02-28T12:51:42.172Z,8.50
2023-02-28T12:53:42.422Z,9.80
2023-02-28T12:55:42.722Z,9.40
2023-02-28T12:57:42.999Z,8.00
2023-02-28T12:59:43.290Z,9.30
2023-02-28T13:01:43.659Z,10.40
2023-02-28T13:03:43.955Z,11.00
2023-02-28T13:05:45.159Z,9.00
2023-02-28T13:07:45.460Z,10.10
2023-02-28T13:09:45.917Z,8.50
2023-02-28T13:11:46.309Z,8.40
2023-02-28T13:13:46.617Z,10.20
2023-02-28T13:15:46.936Z,8.40
2023-02-28T13:17:47.258Z,12.70
2023-02-28T13:19:52.412Z,10.90
2023-02-28T13:21:52.783Z,9.00
2023-02-28T13:23:53.099Z,9.80
2023-02-28T13:25:53.383Z,7.80
2023-02-28T13:27:53.698Z,9.50
2023-02-28T13:29:54.046Z,12.30
2023-02-28T13:31:54.351Z,9.90
2023-02-28T13:33:54.736Z,8.90
2023-02-28T13:35:55.083Z,9.00
2023-02-28T13:37:55.394Z,11.70
2023-02-28T13:39:55.669Z,12.30
2023-02-28T13:41:55.999Z,10.10
2023-02-28T13:43:56.283Z,8.40
2023-02-28T13:45:56.569Z,11.30
2023-02-28T13:47:56.897Z,9.90
2023-02-28T13:49:57.200Z,10.60
2023-02-28T13:51:57.552Z,10.70
2023-02-28T13:53:57.798Z,10.70
2023-02-28T13:55:58.083Z,7.80
2023-02-28T13:57:58.423Z,10.90
2023-02-28T13:59:58.736Z,10.00
2023-02-28T14:01:59.104Z,11.90
2023-02-28T14:03:59.506Z,11.50
2023-02-28T14:05:59.895Z,13.00
2023-02-28T14:08:00.167Z,9.80
2023-02-28T14:10:00.500Z,9.10
2023-02-28T14:12:00.921Z,11.80
2023-02-28T14:14:01.233Z,10.70
2023-02-28T14:16:01.614Z,11.50
2023-02-28T14:18:02.674Z,12.20
2023-02-28T14:20:03.431Z,9.70
2023-02-28T14:22:03.726Z,8.90
2023-02-28T14:24:08.875Z,10.90
2023-02-28T14:26:09.234Z,9.10
2023-02-28T14:28:09.594Z,9.20
2023-02-28T14:30:09.884Z,11.20
2023-02-28T14:32:10.255Z,10.50
2023-02-28T14:34:10.536Z,13.40
2023-02-28T14:36:10.877Z,11.20
2023-02-28T14:38:11.685Z,12.10
2023-02-28T14:40:12.010Z,11.30
2023-02-28T14:42:13.025Z,13.50
2023-02-28T14:44:18.188Z,11.70
2023-02-28T14:46:18.556Z,9.80
2023-02-28T14:48:18.826Z,13.20
2023-02-28T14:50:19.365Z,10.70
2023-02-28T14:52:19.717Z,11.40
2023-02-28T14:54:20.055Z,13.40
2023-02-28T14:56:20.348Z,18.00
2023-02-28T14:58:21.088Z,12.80
2023-02-28T15:00:21.923Z,15.30
2023-02-28T15:02:22.267Z,13.10
2023-02-28T15:04:22.594Z,9.70
2023-02-28T15:08:23.190Z,15.50
2023-02-28T15:10:23.590Z,11.60
2023-02-28T15:14:24.185Z,10.50
2023-02-28T15:16:24.554Z,10.50
2023-02-28T15:18:24.817Z,11.40
2023-02-28T15:20:25.172Z,10.90
2023-02-28T15:22:25.446Z,12.10
2023-02-28T15:24:25.783Z,11.40
2023-02-28T15:26:26.114Z,9.40
2023-02-28T15:28:26.400Z,10.00
2023-02-28T15:30:26.727Z,13.30
2023-02-28T15:32:27.140Z,10.70
2023-02-28T15:34:33.708Z,9.40
2023-02-28T15:36:32.655Z,13.90
2023-02-28T15:38:37.825Z,16.10
2023-02-28T15:40:38.141Z,14.90
2023-02-28T15:42:38.437Z,16.00
2023-02-28T15:44:38.803Z,14.30
2023-02-28T15:46:39.054Z,9.50
2023-02-28T15:48:39.363Z,11.70
2023-02-28T15:50:39.749Z,10.70
2023-02-28T15:52:40.073Z,9.30
2023-02-28T15:54:41.225Z,14.90
2023-02-28T15:56:41.536Z,14.60
2023-02-28T15:58:41.845Z,10.40
2023-02-28T16:00:42.134Z,10.70
2023-02-28T16:02:42.540Z,10.40
2023-02-28T16:04:42.897Z,10.60
2023-02-28T16:06:43.232Z,14.50
2023-02-28T16:08:43.529Z,11.00
2023-02-28T16:10:43.791Z,10.50
2023-02-28T16:12:44.126Z,12.10
2023-02-28T16:14:44.390Z,14.20
2023-02-28T16:16:44.834Z,11.00
2023-02-28T16:18:45.430Z,11.90
2023-02-28T16:20:45.799Z,11.10
2023-02-28T16:22:46.051Z,13.50
2023-02-28T16:24:46.379Z,11.30
2023-02-28T16:26:46.672Z,11.20
2023-02-28T16:28:47.018Z,10.60
2023-02-28T16:30:47.375Z,11.20
2023-02-28T16:32:47.798Z,14.20
2023-02-28T16:34:48.099Z,12.40
2023-02-28T16:36:48.410Z,11.80
2023-02-28T16:38:48.726Z,11.10
2023-02-28T16:40:49.037Z,12.20
2023-02-28T16:42:49.306Z,12.60
2023-02-28T16:44:49.600Z,13.80
2023-02-28T16:46:49.889Z,12.30
2023-02-28T16:48:50.190Z,13.00
2023-02-28T16:50:50.484Z,10.80
2023-02-28T16:52:50.808Z,12.10
2023-02-28T16:54:51.130Z,13.60
2023-02-28T16:56:51.463Z,11.30
2023-02-28T16:58:51.744Z,11.70
2023-02-28T17:00:52.012Z,15.00
2023-02-28T17:02:52.549Z,11.40
2023-02-28T17:04:52.946Z,13.40
2023-02-28T17:06:53.265Z,14.10
2023-02-28T17:08:53.601Z,13.00
2023-02-28T17:10:53.862Z,12.10
2023-02-28T17:12:58.281Z,12.60
2023-02-28T17:14:59.359Z,13.90
2023-02-28T17:16:59.675Z,14.10
2023-02-28T17:19:00.134Z,13.20
2023-02-28T17:21:01.211Z,12.40
2023-02-28T17:23:01.508Z,13.30
2023-02-28T17:25:01.997Z,12.80
2023-02-28T17:27:02.285Z,12.80
2023-02-28T17:29:02.609Z,13.10
2023-02-28T17:31:03.001Z,12.70
2023-02-28T17:33:03.273Z,12.20
2023-02-28T17:35:03.598Z,13.40
2023-02-28T17:37:04.491Z,11.50
2023-02-28T17:39:04.977Z,11.70
2023-02-28T17:41:05.275Z,11.60
2023-02-28T17:43:05.605Z,14.30
2023-02-28T17:45:05.877Z,12.50
2023-02-28T17:47:06.191Z,12.50
2023-02-28T17:49:06.528Z,12.60
2023-02-28T17:51:06.832Z,13.80
2023-02-28T17:53:07.149Z,13.20
2023-02-28T17:55:08.222Z,16.00
2023-02-28T17:57:08.487Z,15.30
2023-02-28T17:59:08.868Z,13.80
2023-02-28T18:01:09.188Z,13.20
2023-02-28T18:03:09.586Z,11.10
2023-02-28T18:05:14.681Z,12.90
2023-02-28T18:07:15.008Z,14.00
2023-02-28T18:09:15.314Z,13.20
2023-02-28T18:11:15.661Z,15.70
2023-02-28T18:13:15.981Z,13.90
2023-02-28T18:15:16.279Z,13.80
2023-02-28T18:17:16.583Z,12.80
2023-02-28T18:19:16.898Z,12.00
2023-02-28T18:21:17.178Z,12.60
2023-02-28T18:23:17.474Z,13.00
2023-02-28T18:25:17.793Z,13.40
2023-02-28T18:27:18.127Z,13.00
2023-02-28T18:29:18.414Z,12.50
2023-02-28T18:31:18.904Z,13.20
2023-02-28T18:33:19.321Z,14.20
2023-02-28T18:35:19.626Z,12.40
2023-02-28T18:37:19.937Z,11.90
2023-02-28T18:39:20.266Z,17.40
2023-02-28T18:41:20.778Z,13.60
2023-02-28T18:43:21.272Z,13.00
2023-02-28T18:45:21.581Z,12.60
2023-02-28T18:47:26.789Z,13.60
2023-02-28T18:49:27.082Z,11.70
2023-02-28T18:51:27.369Z,13.80
2023-02-28T18:53:27.640Z,11.20
2023-02-28T18:55:28.034Z,12.40
2023-02-28T18:57:28.350Z,20.00
2023-02-28T18:59:28.698Z,17.00
2023-02-28T19:01:28.972Z,23.40
2023-02-28T19:03:29.261Z,18.40
2023-02-28T19:05:29.587Z,16.00
2023-02-28T19:07:29.854Z,16.10
2023-02-28T19:09:30.175Z,17.40
2023-02-28T19:11:30.464Z,17.90
2023-02-28T19:13:30.746Z,21.70
2023-02-28T19:15:31.079Z,24.60
2023-02-28T19:17:31.374Z,24.20
2023-02-28T19:19:31.658Z,19.70
2023-02-28T19:21:31.991Z,24.70
2023-02-28T19:23:32.799Z,22.30
2023-02-28T19:25:33.116Z,21.30
2023-02-28T19:27:33.423Z,19.50
2023-02-28T19:29:33.713Z,21.40
2023-02-28T19:31:34.366Z,15.60
2023-02-28T19:33:34.839Z,12.90
2023-02-28T19:35:35.227Z,15.80
2023-02-28T19:37:35.534Z,13.80
2023-02-28T19:39:35.807Z,16.00
2023-02-28T19:41:36.140Z,15.40
2023-02-28T19:43:36.460Z,15.30
2023-02-28T19:45:36.771Z,14.30
2023-02-28T19:47:37.046Z,14.30
2023-02-28T19:49:37.331Z,14.40
2023-02-28T19:51:37.637Z,15.10
2023-02-28T19:53:38.005Z,15.20
2023-02-28T19:55:38.289Z,16.20
2023-02-28T19:57:38.548Z,13.70
2023-02-28T19:59:40.083Z,13.90
2023-02-28T20:01:40.477Z,14.50
2023-02-28T20:03:40.759Z,14.30
2023-02-28T20:05:41.119Z,14.30
2023-02-28T20:07:41.566Z,13.60
2023-02-28T20:09:41.877Z,15.10
2023-02-28T20:11:42.174Z,14.70
2023-02-28T20:13:42.457Z,16.00
2023-02-28T20:15:47.658Z,14.20
2023-02-28T20:17:47.943Z,15.40
2023-02-28T20:19:48.254Z,14.30
2023-02-28T20:21:48.547Z,16.60
2023-02-28T20:23:48.844Z,16.50
2023-02-28T20:25:49.204Z,16.70
2023-02-28T20:27:49.460Z,17.20
2023-02-28T20:29:49.804Z,17.90
2023-02-28T20:31:50.139Z,16.80
2023-02-28T20:33:50.418Z,18.10
2023-02-28T20:35:50.783Z,17.40
2023-02-28T20:37:51.060Z,18.40
2023-02-28T20:39:51.331Z,17.40
2023-02-28T20:41:51.702Z,18.30
2023-02-28T20:43:51.962Z,16.50
2023-02-28T20:45:52.339Z,19.50
2023-02-28T20:47:52.617Z,17.40
2023-02-28T20:49:52.976Z,17.40
2023-02-28T20:51:53.372Z,16.60
2023-02-28T20:53:53.633Z,18.50
2023-02-28T20:55:54.279Z,16.10
2023-02-28T20:57:54.547Z,15.40
2023-02-28T20:59:54.895Z,15.50
2023-02-28T21:01:55.142Z,17.30
2023-02-28T21:03:55.461Z,15.60
2023-02-28T21:05:55.765Z,15.40
2023-02-28T21:07:56.086Z,15.80
2023-02-28T21:09:56.378Z,15.40
2023-02-28T21:11:56.666Z,15.90
2023-02-28T21:13:56.997Z,15.90
2023-02-28T21:15:57.341Z,16.00
2023-02-28T21:17:57.679Z,17.20
2023-02-28T21:19:57.917Z,15.40
2023-02-28T21:21:58.196Z,16.00
2023-02-28T21:23:58.536Z,15.30
2023-02-28T21:25:58.908Z,14.80
2023-02-28T21:27:59.252Z,16.80
2023-02-28T21:29:59.538Z,16.80
2023-02-28T21:31:59.851Z,16.00
2023-02-28T21:34:00.365Z,14.50
2023-02-28T21:36:00.766Z,13.50
2023-02-28T21:38:01.159Z,15.10
2023-02-28T21:40:01.412Z,15.50
2023-02-28T21:42:01.881Z,15.10
2023-02-28T21:44:02.202Z,14.20
2023-02-28T21:46:02.467Z,14.00
2023-02-28T21:48:02.764Z,16.10
2023-02-28T21:50:03.162Z,14.30
2023-02-28T21:52:03.507Z,14.10
2023-02-28T21:54:03.737Z,13.10
2023-02-28T21:56:04.091Z,14.40
2023-02-28T21:58:04.461Z,15.90
2023-02-28T22:00:05.028Z,16.60
2023-02-28T22:02:05.445Z,13.60
2023-02-28T22:04:05.741Z,13.00
2023-02-28T22:06:06.054Z,14.30
2023-02-28T22:08:06.441Z,14.30
2023-02-28T22:10:06.689Z,13.60
2023-02-28T22:12:07.079Z,13.30
2023-02-28T22:14:07.350Z,16.40
2023-02-28T22:16:07.735Z,14.00
2023-02-28T22:18:09.974Z,14.10
2023-02-28T22:20:10.270Z,12.80
2023-02-28T22:22:10.568Z,14.40
2023-02-28T22:24:10.866Z,13.90
2023-02-28T22:26:11.166Z,14.10
2023-02-28T22:28:11.506Z,13.40
2023-02-28T22:30:11.815Z,15.20
2023-02-28T22:32:12.148Z,15.00
2023-02-28T22:34:12.432Z,14.10
2023-02-28T22:36:12.702Z,13.30
2023-02-28T22:38:13.024Z,13.60
2023-02-28T22:40:13.330Z,14.90
2023-02-28T22:42:13.664Z,14.50
2023-02-28T22:44:13.964Z,14.60
2023-02-28T22:46:14.271Z,15.20
2023-02-28T22:48:14.724Z,15.40
2023-02-28T22:50:15.075Z,14.60
2023-02-28T22:52:15.413Z,13.50
2023-02-28T22:54:15.661Z,14.80
2023-02-28T22:56:16.000Z,14.40
2023-02-28T22:58:16.331Z,14.80
2023-02-28T23:00:16.658Z,14.80
2023-02-28T23:02:17.044Z,14.10
2023-02-28T23:04:17.409Z,13.90
2023-02-28T23:06:17.690Z,14.70
2023-02-28T23:08:18.044Z,14.30
2023-02-28T23:10:18.344Z,14.00
2023-02-28T23:12:18.608Z,14.70
2023-02-28T23:14:18.945Z,14.60
2023-02-28T23:16:19.256Z,14.30
2023-02-28T23:18:19.676Z,13.40
2023-02-28T23:20:19.982Z,14.00
2023-02-28T23:22:20.278Z,14.50
2023-02-28T23:24:20.577Z,17.40
2023-02-28T23:26:20.901Z,15.90
2023-02-28T23:28:21.234Z,14.20
2023-02-28T23:30:21.510Z,15.40
2023-02-28T23:32:22.074Z,13.60
2023-02-28T23:34:22.505Z,15.10
2023-02-28T23:36:22.845Z,15.40
2023-02-28T23:38:23.097Z,16.00
2023-02-28T23:40:24.266Z,16.50
2023-02-28T23:42:24.524Z,18.60
2023-02-28T23:44:24.827Z,16.00
2023-02-28T23:46:25.095Z,14.10
2023-02-28T23:48:25.452Z,15.90
2023-02-28T23:50:25.722Z,14.10
2023-02-28T23:52:26.016Z,15.20
2023-02-28T23:54:26.358Z,16.10
2023-02-28T23:56:26.770Z,15.40
2023-02-28T23:58:27.082Z,16.90
